• Join FlightAware (Why Join?)
  • Login
  • US Flag 
12:54PM EDT


 

Airport Tracker/Info


-or-


 

Live Flight TrackerFlight Track Log ✈ N618JB ✈ 01-May-2013 ✈ KBOS - KSFO

Flight Track Log - Related Links

Times and Time Zones

All times are in EDT time to prevent confusion due to time zone crossing. See the N618JB flight status page for this flight to view local times or setup timezone preferences in your user account.

Time Position Orientation Groundspeed Altitude Reporting Facility
EDT Latitude Longitude Course Direction KTS MPH feet Rate Location/Type
08:18PM 42.3667 -70.9833 278° West 133 153 700  Level KA90
08:18PM 42.3667 -70.9333 90° East 162 186 2,200 1,980 Climbing KA90
08:19PM 42.3833 -70.8500 75° East 222 255 4,100 2,040 Climbing KA90
08:20PM 42.4167 -70.7833 56° Northeast 254 292 6,400 2,520 Climbing KA90
08:21PM 42.8841 -72.5155 277° West  Level FlightAware Approximate
08:21PM 42.4833 -70.7667 10° North 269 310 9,300  Level KA90
08:22PM 42.8968 -72.6628 277° West  Level FlightAware Approximate
08:23PM 42.9110 -72.8099 278° West  Level FlightAware Approximate
08:23PM 42.5542 -70.8731 312° West 294 338 12,200  Level Boston Center
08:25PM 42.6589 -71.0594 307° West 311 358 17,000 2,100 Climbing Boston Center
08:26PM 42.7142 -71.1544 308° West 318 366 18,500 1,140 Climbing Boston Center
08:27PM 42.7692 -71.2467 309° West 329 379 19,300 780 Climbing Boston Center
08:28PM 42.7978 -71.3903 285° West 367 422 20,100 1,200 Climbing Boston Center
08:29PM 42.8097 -71.5656 275° West 404 465 21,700 1,440 Climbing Boston Center
08:30PM 42.8253 -71.7267 278° West 418 481 23,000 1,200 Climbing Boston Center
08:31PM 42.8431 -71.8936 278° West 436 502 24,100 1,140 Climbing Boston Center
08:32PM 42.8561 -72.0633 276° West 449 517 25,300 1,200 Climbing Boston Center
08:33PM 42.8733 -72.2333 278° West 454 522 26,500 960 Climbing Boston Center
08:34PM 42.8964 -72.3892 281° West 465 535 27,300 780 Climbing Boston Center
08:35PM 42.9108 -72.5678 276° West 470 541 28,100 840 Climbing Boston Center
08:36PM 42.9169 -72.7464 273° West 476 548 29,000 780 Climbing Boston Center
08:37PM 42.9328 -72.9306 277° West 482 555 29,700 960 Climbing Boston Center
08:38PM 42.9528 -73.1350 278° West 487 560 31,000 1,080 Climbing Boston Center
08:39PM 42.9658 -73.3197 276° West 487 560 31,900 840 Climbing Boston Center
08:40PM 42.9769 -73.4986 275° West 487 560 32,700 900 Climbing Boston Center
08:41PM 42.9919 -73.6778 277° West 482 555 33,800 600 Climbing Boston Center
08:42PM 43.0064 -73.8569 276° West 482 555 34,000 60 Climbing Boston Center
08:43PM 43.0208 -74.0361 276° West 482 555 34,000  Level Boston Center
08:44PM 43.0328 -74.2153 275° West 482 555 34,000  Level Boston Center
08:45PM 43.0464 -74.3975 276° West 482 555 34,000  Level Boston Center
08:46PM 43.0561 -74.5569 275° West 482 555 34,000  Level Boston Center
08:47PM 43.0692 -74.7394 276° West 477 549 34,000  Level Boston Center
08:48PM 43.0819 -74.9192 276° West 482 555 34,000 -60 Level Boston Center
08:49PM 43.0928 -75.0958 275° West 476 548 33,900  Descending Boston Center
08:50PM 43.1050 -75.2783 275° West 476 548 34,000  Climbing Boston Center
08:51PM 43.1169 -75.4581 275° West 481 554 34,000 -60 Level Boston Center
08:52PM 43.1267 -75.6408 274° West 481 554 33,900  Descending Boston Center
08:53PM 43.1381 -75.8178 275° West 481 554 34,000  Climbing Boston Center
08:54PM 43.1600 -76.1769 275° West 474 545 33,900  Descending Cleveland Center
08:55PM 43.1606 -76.3592 270° West 474 545 34,000  Climbing Cleveland Center
08:56PM 43.1606 -76.5328 270° West 474 545 34,000 -60 Level Cleveland Center
08:57PM 43.1614 -76.6781 271° West 474 545 33,900  Descending Cleveland Center
08:58PM 43.1594 -76.8744 269° West 479 551 34,000  Climbing Cleveland Center
08:59PM 43.1586 -77.0511 270° West 479 551 34,000  Level Cleveland Center
09:00PM 43.1578 -77.2306 270° West 479 551 34,000  Level Cleveland Center
09:01PM 43.1567 -77.4100 270° West 479 551 34,000  Level Cleveland Center
09:02PM 43.1550 -77.5864 269° West 479 551 34,000  Level Cleveland Center
09:03PM 43.1511 -77.7658 268° West 479 551 34,000  Level Cleveland Center
09:04PM 43.1517 -77.9650 270° West 479 551 34,000  Level Cleveland Center
09:05PM 43.1472 -78.1389 268° West 479 551 34,000  Level Cleveland Center
09:06PM 43.1467 -78.3153 270° West 474 545 34,000  Level Cleveland Center
09:07PM 43.1667 -78.4939 279° West 474 545 34,000  Level Cleveland Center
09:08PM 43.1947 -78.6667 283° West 474 545 34,000  Level Cleveland Center
09:09PM 43.2222 -78.8369 283° West 474 545 34,000  Level Cleveland Center
09:10PM 43.2333 -78.8833 288° West 470 541 34,000  Level Toronto Center
09:11PM 43.2500 -79.0833 277° West 470 541 34,000  Level Toronto Center
09:12PM 43.2833 -79.2500 285° West 470 541 34,000  Level Toronto Center
09:13PM 43.3000 -79.4333 277° West 470 541 34,000  Level Toronto Center
09:14PM 43.3333 -79.5833 287° West 470 541 34,000  Level Toronto Center
09:15PM 43.3667 -79.7667 284° West 470 541 34,000  Level Toronto Center
09:16PM 43.3833 -79.9500 277° West 460 529 34,000  Level Toronto Center
09:17PM 43.4167 -80.1167 285° West 460 529 34,000  Level Toronto Center
09:18PM 43.4333 -80.3000 277° West 460 529 34,000  Level Toronto Center
09:19PM 43.4500 -80.4833 277° West 460 529 34,000  Level Toronto Center
09:20PM 43.4333 -80.6500 262° West 460 529 34,000  Level Toronto Center
09:21PM 43.4000 -80.8333 256° West 460 529 34,000  Level Toronto Center
09:22PM 43.3833 -80.9833 261° West 460 529 34,000  Level Toronto Center
09:23PM 43.3833 -81.1667 270° West 460 529 34,000  Level Toronto Center
09:24PM 43.3667 -81.3333 262° West 450 518 34,000  Level Toronto Center
09:25PM 43.3500 -81.4833 261° West 450 518 34,000  Level Toronto Center
09:26PM 43.3500 -81.6667 270° West 450 518 34,000  Level Toronto Center
09:27PM 43.3333 -81.8500 263° West 450 518 34,000  Level Toronto Center
09:28PM 43.3000 -82.0167 255° West 450 518 34,000  Level Toronto Center
09:29PM 43.2833 -82.2000 263° West 450 518 34,000  Level Toronto Center
09:30PM 43.2833 -82.3667 270° West 450 518 34,000  Level Toronto Center
09:31PM 43.2667 -82.5333 262° West 450 518 34,000  Level Toronto Center
09:32PM 43.2753 -82.7617 273° West 463 533 34,000  Level Cleveland Center
09:33PM 43.3094 -82.9311 286° West 463 533 34,000  Level Cleveland Center
09:34PM 43.3539 -83.0956 290° West 456 525 34,000  Level Cleveland Center
09:35PM 43.3981 -83.2631 290° West 461 531 34,000  Level Cleveland Center
09:36PM 43.4419 -83.4339 290° West 466 536 34,000  Level Cleveland Center
09:38PM 43.5269 -83.7611 290° West 466 536 34,000  Level Minneapolis Center
09:39PM 43.5692 -83.9269 289° West 463 533 34,000  Level Minneapolis Center
09:40PM 43.6122 -84.0942 290° West 463 533 34,000  Level Minneapolis Center
09:41PM 43.6531 -84.2619 289° West 463 533 34,000  Level Minneapolis Center
09:42PM 43.6956 -84.4303 289° West 465 535 34,000  Level Minneapolis Center
09:43PM 43.7381 -84.5983 289° West 465 535 34,000  Level Minneapolis Center
09:44PM 43.7794 -84.7672 289° West 466 536 34,000  Level Minneapolis Center
09:45PM 43.8208 -84.9344 289° West 463 533 34,000  Level Minneapolis Center
09:46PM 43.8692 -85.1356 288° West 462 532 34,000  Level Minneapolis Center
09:47PM 43.9106 -85.3067 289° West 465 535 34,000  Level Minneapolis Center
09:48PM 43.9511 -85.4764 288° West 467 537 34,000  Level Minneapolis Center
09:49PM 43.9911 -85.6450 288° West 466 536 34,000  Level Minneapolis Center
09:50PM 44.0294 -85.8106 288° West 460 529 34,000  Level Minneapolis Center
09:51PM 44.0692 -85.9792 288° West 461 531 34,000  Level Minneapolis Center
09:52PM 44.1006 -86.1142 288° West 461 531 34,000  Level Minneapolis Center
09:53PM 44.1492 -86.3269 288° West 462 532 34,000  Level Minneapolis Center
09:54PM 44.1875 -86.4989 287° West 463 533 34,000  Level Minneapolis Center
09:56PM 44.2256 -86.6689 287° West 458 527 34,000  Level Minneapolis Center
09:57PM 44.2714 -86.8733 287° West 459 528 34,000  Level Minneapolis Center
09:58PM 44.3089 -87.0414 287° West 455 524 34,000  Level Minneapolis Center
09:59PM 44.3461 -87.2081 287° West 455 524 34,000  Level Minneapolis Center
10:00PM 44.3822 -87.3767 287° West 454 522 34,000  Level Minneapolis Center
10:01PM 44.4186 -87.5450 287° West 454 522 34,000  Level Minneapolis Center
10:02PM 44.4547 -87.7156 287° West 457 526 34,000  Level Minneapolis Center
10:03PM 44.4919 -87.8875 287° West 454 522 34,000  Level Minneapolis Center
10:04PM 44.5256 -88.0511 286° West 450 518 34,000  Level Minneapolis Center
10:05PM 44.5603 -88.2208 286° West 453 521 34,000  Level Minneapolis Center
10:06PM 44.5856 -88.4217 280° West 450 518 34,000  Level Minneapolis Center
10:07PM 44.6081 -88.5933 280° West 448 516 34,000  Level Minneapolis Center
10:08PM 44.6289 -88.7614 280° West 441 507 34,000  Level Minneapolis Center
10:09PM 44.6500 -88.9303 280° West 439 505 34,000  Level Minneapolis Center
10:10PM 44.6697 -89.0989 279° West 439 505 34,000  Level Minneapolis Center
10:11PM 44.6908 -89.2653 280° West 437 503 34,000  Level Minneapolis Center
10:12PM 44.7106 -89.4333 279° West 436 502 34,000  Level Minneapolis Center
10:13PM 44.7314 -89.6022 280° West 438 504 34,000  Level Minneapolis Center
10:14PM 44.7503 -89.7689 279° West 435 501 34,000  Level Minneapolis Center
10:15PM 44.7731 -89.9669 279° West 438 504 34,000  Level Minneapolis Center
10:16PM 44.7922 -90.1353 279° West 437 503 34,000  Level Minneapolis Center
10:17PM 44.8106 -90.3025 279° West 433 498 34,000  Level Minneapolis Center
10:18PM 44.8294 -90.4700 279° West 434 499 34,000  Level Minneapolis Center
10:19PM 44.8475 -90.6331 279° West 431 496 34,000  Level Minneapolis Center
10:20PM 44.8658 -90.8017 279° West 434 499 34,000  Level Minneapolis Center
10:21PM 44.8847 -90.9914 278° West 443 510 34,000  Level Minneapolis Center
10:22PM 44.9044 -91.1625 279° West 431 496 34,000  Level Minneapolis Center
10:23PM 44.9197 -91.3242 278° West 430 495 34,000  Level Minneapolis Center
10:24PM 44.9383 -91.4967 279° West 428 493 34,000  Level Minneapolis Center
10:25PM 44.9542 -91.6553 278° West 426 490 34,000  Level Minneapolis Center
10:26PM 44.9678 -91.8172 277° West 419 482 34,000  Level Minneapolis Center
10:27PM 44.9856 -91.9828 279° West 425 489 34,000  Level Minneapolis Center
10:28PM 45.0014 -92.1478 278° West 427 491 34,000  Level Minneapolis Center
10:29PM 45.0172 -92.3103 278° West 420 483 34,000  Level Minneapolis Center
10:30PM 45.0314 -92.4736 277° West 422 486 34,000  Level Minneapolis Center
10:31PM 45.0500 -92.6686 278° West 421 484 34,000  Level Minneapolis Center
10:32PM 45.0647 -92.8289 277° West 416 479 34,000  Level Minneapolis Center
10:33PM 45.0786 -92.9886 277° West 415 478 34,000  Level Minneapolis Center
10:34PM 45.0928 -93.1492 277° West 416 479 34,000  Level Minneapolis Center
10:35PM 45.1061 -93.3081 277° West 414 476 34,000  Level Minneapolis Center
10:36PM 45.1192 -93.4669 277° West 412 474 34,000  Level Minneapolis Center
10:37PM 45.1328 -93.6269 277° West 413 475 34,000  Level Minneapolis Center
10:38PM 45.1478 -93.8203 276° West 414 476 34,000  Level Minneapolis Center
10:39PM 45.1606 -93.9833 276° West 418 481 34,000  Level Minneapolis Center
10:40PM 45.1733 -94.1447 276° West 416 479 34,000  Level Minneapolis Center
10:41PM 45.1858 -94.3064 276° West 416 479 34,000  Level Minneapolis Center
10:42PM 45.1783 -94.4617 266° West 397 457 34,000  Level Minneapolis Center
10:43PM 45.1667 -94.6161 264° West 394 453 34,000  Level Minneapolis Center
10:44PM 45.1539 -94.7797 264° West 395 455 34,000  Level Minneapolis Center
10:45PM 45.1397 -94.9331 263° West 395 455 34,000  Level Minneapolis Center
10:46PM 45.1267 -95.0861 263° West 394 453 34,100  Climbing Minneapolis Center
10:47PM 45.1136 -95.2386 263° West 392 451 34,000 -60 Descending Minneapolis Center
10:48PM 45.1000 -95.3894 263° West 390 449 34,000  Level Minneapolis Center
10:50PM 45.0858 -95.5411 263° West 391 450 34,000  Level Minneapolis Center
10:51PM 45.0694 -95.7231 263° West 391 450 34,000  Level Minneapolis Center
10:52PM 45.0572 -95.8728 263° West 387 445 34,000  Level Minneapolis Center
10:53PM 45.0411 -96.0225 261° West 388 447 34,000  Level Minneapolis Center
10:54PM 45.0283 -96.1725 263° West 387 445 34,000  Level Minneapolis Center
10:55PM 45.0128 -96.3231 262° West 390 449 34,000  Level Minneapolis Center
10:56PM 44.9992 -96.4728 263° West 388 447 34,000  Level Minneapolis Center
10:57PM 44.9833 -96.6247 262° West 391 450 34,000  Level Minneapolis Center
10:58PM 44.9681 -96.7767 262° West 394 453 34,000  Level Minneapolis Center
10:59PM 44.9517 -96.9297 261° West 396 456 34,100  Climbing Minneapolis Center
11:00PM 44.9333 -97.1139 262° West 396 456 34,000 -60 Descending Minneapolis Center
11:01PM 44.9161 -97.2664 261° West 397 457 34,000  Level Minneapolis Center
11:02PM 44.8994 -97.4178 261° West 395 455 34,000  Level Minneapolis Center
11:03PM 44.8856 -97.5669 263° West 389 448 34,000  Level Minneapolis Center
11:04PM 44.8689 -97.7178 261° West 390 449 34,000  Level Minneapolis Center
11:05PM 44.8519 -97.8669 261° West 388 447 34,000  Level Minneapolis Center
11:06PM 44.8353 -98.0200 261° West 396 456 34,000  Level Minneapolis Center
11:07PM 44.8161 -98.1753 260° West 399 459 34,100  Climbing Minneapolis Center
11:08PM 44.7972 -98.3292 260° West 401 461 34,000 -60 Descending Minneapolis Center
11:09PM 44.7772 -98.5142 261° West 400 460 34,000  Level Minneapolis Center
11:10PM 44.7589 -98.6667 260° West 398 458 34,000 420 Level Minneapolis Center
11:11PM 44.7419 -98.8169 261° West 392 451 34,900 900 Climbing Minneapolis Center
11:12PM 44.7244 -98.9611 260° West 380 437 35,900 480 Climbing Minneapolis Center
11:13PM 44.7064 -99.1069 260° West 377 434 36,000  Climbing Minneapolis Center
11:14PM 44.6886 -99.2556 260° West 382 440 36,000  Level Minneapolis Center
11:15PM 44.6692 -99.4050 260° West 386 444 36,000  Level Minneapolis Center
11:16PM 44.6494 -99.5569 260° West 391 450 36,000  Level Minneapolis Center
11:17PM 44.6303 -99.7097 260° West 394 453 36,000  Level Minneapolis Center
11:18PM 44.6100 -99.8631 260° West 396 456 36,000  Level Minneapolis Center
11:19PM 44.5900 -100.0169 260° West 398 458 36,000  Level Minneapolis Center
11:20PM 44.5706 -100.1683 260° West 395 455 36,000  Level Minneapolis Center
11:21PM 44.5489 -100.3214 259° West 396 456 36,000  Level Minneapolis Center
11:22PM 44.5294 -100.4747 260° West 398 458 36,000  Level Minneapolis Center
11:23PM 44.5078 -100.6278 259° West 399 459 36,000  Level Minneapolis Center
11:24PM 44.4825 -100.8117 259° West 400 460 36,000  Level Minneapolis Center
11:25PM 44.4606 -100.9669 259° West 402 463 36,000  Level Minneapolis Center
11:26PM 44.4383 -101.1217 259° West 404 465 36,000  Level Minneapolis Center
11:27PM 44.4178 -101.2767 260° West 405 466 36,000  Level Minneapolis Center
11:28PM 44.3953 -101.4311 259° West 406 467 36,000  Level Minneapolis Center
11:29PM 44.3722 -101.5856 258° West 406 467 36,000  Level Minneapolis Center
11:30PM 44.3611 -101.6467 256° West 408 470 36,000  Level Denver Center
11:31PM 44.3392 -101.8025 259° West 408 470 36,000  Level Denver Center
11:32PM 44.3161 -101.9586 258° West 410 472 36,000  Level Denver Center
11:33PM 44.2922 -102.1136 258° West 410 472 36,000  Level Denver Center
11:34PM 44.2697 -102.2703 259° West 411 473 36,000  Level Denver Center
11:35PM 44.2436 -102.4264 257° West 413 475 36,000  Level Denver Center
11:36PM 44.2200 -102.5842 258° West 415 478 36,000  Level Denver Center
11:37PM 44.1950 -102.7436 258° West 420 483 36,000  Level Denver Center
11:38PM 44.1708 -102.9031 258° West 421 484 36,000  Level Denver Center
11:39PM 44.1431 -103.0756 257° West 426 490 36,000  Level Denver Center
11:40PM 44.1183 -103.2292 257° West 426 490 36,000  Level Denver Center
11:41PM 44.0889 -103.4111 257° West 430 495 36,000  Level Denver Center
11:42PM 44.0650 -103.5653 258° West 430 495 36,000  Level Denver Center
11:43PM 44.0333 -103.7453 256° West 430 495 36,000  Level Denver Center
11:44PM 44.0086 -103.8994 257° West 430 495 36,000  Level Denver Center
11:45PM 43.9817 -104.0553 257° West 434 499 36,000  Level Denver Center
11:46PM 43.9514 -104.2344 257° West 429 494 36,000  Level Denver Center
11:47PM 43.9247 -104.3900 257° West 432 497 36,000  Level Denver Center
11:48PM 43.8972 -104.5433 256° West 430 495 36,000  Level Denver Center
11:49PM 43.8658 -104.7242 257° West 432 497 36,000  Level Denver Center
11:50PM 43.8378 -104.8806 256° West 436 502 36,000  Level Denver Center
11:51PM 43.8061 -105.0642 257° West 439 505 36,000  Level Denver Center
11:52PM 43.7767 -105.2219 256° West 442 509 36,000  Level Denver Center
11:53PM 43.7486 -105.3769 256° West 439 505 36,000  Level Denver Center
11:54PM 43.7150 -105.5583 256° West 437 503 36,000  Level Denver Center
11:55PM 43.6875 -105.7117 256° West 433 498 36,000  Level Denver Center
11:56PM 43.6522 -105.8956 255° West 441 507 36,000  Level Denver Center
11:57PM 43.6228 -106.0514 255° West 439 505 36,000  Level Denver Center
11:58PM 43.5925 -106.2081 255° West 441 507 36,000  Level Denver Center
11:59PM 43.5575 -106.3906 255° West 443 510 36,000  Level Denver Center
12:00AM 43.5275 -106.5464 255° West 442 509 36,000  Level Denver Center
12:01AM 43.4975 -106.7028 255° West 443 510 36,000  Level Denver Center
12:02AM 43.4608 -106.8858 255° West 447 514 36,000  Level Denver Center
12:03AM 43.4272 -107.0547 255° West 442 509 36,000  Level Denver Center
12:04AM 43.4008 -107.1878 255° West 446 513 36,000  Level Salt Lake Center
12:05AM 43.3686 -107.3467 254° West 450 518 36,000  Level Salt Lake Center
12:07AM 43.2978 -107.6894 254° West 448 516 36,000  Level Salt Lake Center
12:08AM 43.2656 -107.8478 254° West 448 516 36,000  Level Salt Lake Center
12:09AM 43.2275 -108.0303 254° West 446 513 36,000  Level Salt Lake Center
12:10AM 43.1956 -108.1867 254° West 445 512 36,000  Level Salt Lake Center
12:11AM 43.1619 -108.3419 254° West 445 512 36,000  Level Salt Lake Center
12:12AM 43.1233 -108.5239 254° West 446 513 36,000  Level Salt Lake Center
12:13AM 43.0892 -108.6817 254° West 451 519 36,000  Level Salt Lake Center
12:14AM 43.0547 -108.8400 253° West 454 522 36,000  Level Salt Lake Center
12:15AM 43.0150 -109.0258 254° West 456 525 36,000  Level Salt Lake Center
12:16AM 42.9794 -109.1839 253° West 454 522 36,000  Level Salt Lake Center
12:17AM 42.9436 -109.3461 253° West 452 520 36,000 300 Level Salt Lake Center
12:18AM 42.9022 -109.5297 253° West 455 524 36,700 840 Climbing Salt Lake Center
12:19AM 42.8678 -109.6842 253° West 448 516 37,800 600 Climbing Salt Lake Center
12:20AM 42.8331 -109.8353 253° West 440 506 38,000 60 Climbing Salt Lake Center
12:21AM 42.7956 -110.0047 253° West 443 510 38,000  Level Salt Lake Center
12:22AM 42.7533 -110.1853 252° West 446 513 38,000  Level Salt Lake Center
12:23AM 42.7275 -110.2950 252° West 445 512 38,100  Climbing Salt Lake Center
12:24AM 42.6792 -110.4986 252° West 444 511 38,000 -60 Descending Salt Lake Center
12:25AM 42.6439 -110.6478 252° West 438 504 38,000  Level Salt Lake Center
12:26AM 42.6025 -110.8264 253° West 442 509 38,000  Level Salt Lake Center
12:27AM 42.5672 -110.9722 252° West 443 510 38,000  Level Salt Lake Center
12:28AM 42.5275 -111.1333 252° West 450 518 38,100  Climbing Salt Lake Center
12:29AM 42.4892 -111.2906 252° West 443 510 38,100 -60 Level Salt Lake Center
12:30AM 42.4511 -111.4483 252° West 443 510 38,000 -60 Descending Salt Lake Center
12:31AM 42.4128 -111.6033 252° West 439 505 38,000  Level Salt Lake Center
12:33AM 42.3672 -111.7869 251° West 431 496 38,000  Level Salt Lake Center
12:34AM 42.3292 -111.9367 251° West 427 491 38,000  Level Salt Lake Center
12:35AM 42.2914 -112.0878 251° West 426 490 38,000  Level Salt Lake Center
12:36AM 42.2533 -112.2386 251° West 427 491 38,000  Level Salt Lake Center
12:37AM 42.2153 -112.3853 251° West 420 483 38,000  Level Salt Lake Center
12:38AM 42.1703 -112.5361 248° West 429 494 38,000  Level Salt Lake Center
12:39AM 42.1189 -112.6886 246° West 443 510 38,100  Climbing Salt Lake Center
12:40AM 42.0681 -112.8383 245° Southwest 443 510 38,000 -60 Descending Salt Lake Center
12:41AM 42.0147 -112.9881 244° Southwest 445 512 38,000  Level Salt Lake Center
12:42AM 41.9653 -113.1367 246° West 440 506 38,000  Level Salt Lake Center
12:43AM 41.9039 -113.3125 245° Southwest 437 503 38,000  Level Salt Lake Center
12:44AM 41.8550 -113.4589 246° West 434 499 38,000  Level Salt Lake Center
12:45AM 41.8031 -113.6053 245° Southwest 436 502 38,000  Level Salt Lake Center
12:46AM 41.7508 -113.7497 244° Southwest 433 498 38,000  Level Salt Lake Center
12:47AM 41.7008 -113.8947 245° Southwest 431 496 38,000  Level Salt Lake Center
12:48AM 41.6494 -114.0375 244° Southwest 429 494 38,000  Level Salt Lake Center
12:49AM 41.5989 -114.1808 245° Southwest 428 493 38,000  Level Salt Lake Center
12:50AM 41.5481 -114.3244 245° Southwest 429 494 38,000  Level Salt Lake Center
12:51AM 41.4947 -114.4689 244° Southwest 432 497 38,000  Level Salt Lake Center
12:52AM 41.4431 -114.6133 245° Southwest 434 499 38,100  Climbing Salt Lake Center
12:53AM 41.3903 -114.7561 244° Southwest 431 496 38,000 -60 Descending Salt Lake Center
12:54AM 41.3308 -114.9194 244° Southwest 433 498 38,000  Level Salt Lake Center
12:55AM 41.2811 -115.0553 244° Southwest 428 493 38,000  Level Salt Lake Center
12:56AM 41.2211 -115.2133 243° Southwest 430 495 38,000  Level Salt Lake Center
12:57AM 41.1703 -115.3511 244° Southwest 431 496 38,000  Level Salt Lake Center
12:58AM 41.1186 -115.4878 243° Southwest 433 498 38,000  Level Salt Lake Center
12:59AM 41.0586 -115.6494 244° Southwest 436 502 38,000  Level Salt Lake Center
01:00AM 41.0058 -115.7864 243° Southwest 436 502 38,000  Level Salt Lake Center
01:01AM 40.9547 -115.9244 244° Southwest 436 502 38,000  Level Salt Lake Center
01:02AM 40.8936 -116.0842 243° Southwest 436 502 38,000  Level Salt Lake Center
01:03AM 40.8406 -116.2217 243° Southwest 439 505 38,000  Level Salt Lake Center
01:04AM 40.7869 -116.3608 243° Southwest 444 511 38,000  Level Salt Lake Center
01:05AM 40.7264 -116.5211 244° Southwest 439 505 38,000  Level Salt Lake Center
01:06AM 40.6736 -116.6567 243° Southwest 435 501 38,000  Level Salt Lake Center
01:07AM 40.6200 -116.7919 242° Southwest 437 503 38,000  Level Salt Lake Center
01:08AM 40.5619 -116.9486 244° Southwest 434 499 38,000  Level Salt Lake Center
01:09AM 40.5267 -117.0892 252° West 429 494 38,000  Level Salt Lake Center
01:10AM 40.4828 -117.2519 251° West 427 491 38,000  Level Salt Lake Center
01:11AM 40.4456 -117.3947 251° West 431 496 38,000  Level Salt Lake Center
01:12AM 40.4083 -117.5347 251° West 427 491 38,000  Level Salt Lake Center
01:13AM 40.3636 -117.6986 250° West 429 494 38,000  Level Salt Lake Center
01:14AM 40.3256 -117.8397 251° West 429 494 38,000  Level Salt Lake Center
01:15AM 40.3078 -117.9108 252° West 429 494 38,000  Level Oakland Center
01:16AM 40.2708 -118.0456 250° West 423 487 38,000  Level Oakland Center
01:17AM 40.2314 -118.1931 251° West 428 493 38,000  Level Oakland Center
01:18AM 40.1914 -118.3361 250° West 422 486 38,000  Level Oakland Center
01:19AM 40.1511 -118.4844 250° West 432 497 38,000  Level Oakland Center
01:20AM 40.1061 -118.6275 248° West 429 494 38,000  Level Oakland Center
01:21AM 40.0681 -118.7769 252° West 434 499 38,000  Level Oakland Center
01:22AM 39.9914 -119.0386 249° West 435 501 38,000  Level Salt Lake Center
01:23AM 39.9733 -119.0981 248° West 435 501 38,000  Level Oakland Center
01:24AM 39.9300 -119.2444 249° West 435 501 38,000  Level Oakland Center
01:25AM 39.8864 -119.3900 249° West 435 501 38,000  Level Oakland Center
01:26AM 39.8431 -119.5372 249° West 437 503 38,000  Level Oakland Center
01:27AM 39.7983 -119.6828 248° West 437 503 38,000  Level Oakland Center
01:28AM 39.7569 -119.8267 250° West 429 494 38,000  Level Oakland Center
01:29AM 39.7136 -119.9733 249° West 436 502 38,000  Level Oakland Center
01:30AM 39.6697 -120.1203 249° West 437 503 38,000  Level Oakland Center
01:31AM 39.6300 -120.2536 249° West 435 501 38,000  Level Oakland Center
01:32AM 39.5758 -120.4289 248° West 439 505 38,000  Level Oakland Center
01:33AM 39.5158 -120.5650 240° Southwest 447 514 38,000  Level Oakland Center
01:34AM 39.4394 -120.6892 231° Southwest 446 513 38,000  Level Oakland Center
01:35AM 39.3636 -120.8136 232° Southwest 442 509 38,000  Level Oakland Center
01:36AM 39.2886 -120.9383 232° Southwest 443 510 38,000  Level Oakland Center
01:37AM 39.2122 -121.0633 232° Southwest 444 511 38,000  Level Oakland Center
01:38AM 39.1369 -121.1883 232° Southwest 445 512 38,000  Level Oakland Center
01:39AM 39.0614 -121.3117 232° Southwest 443 510 38,000  Level Oakland Center
01:40AM 38.9850 -121.4350 231° Southwest 444 511 38,000 -60 Level Oakland Center
01:41AM 38.9089 -121.5572 231° Southwest 443 510 37,900 -540 Descending Oakland Center
01:42AM 38.8333 -121.6814 232° Southwest 444 511 37,000 -1,140 Descending Oakland Center
01:43AM 38.7558 -121.8047 231° Southwest 448 516 35,700 -2,340 Descending Oakland Center
01:44AM 38.6653 -121.9472 231° Southwest 450 518 32,300 -3,300 Descending Oakland Center
01:45AM 38.5836 -122.0778 231° Southwest 467 537 29,100 -2,880 Descending Oakland Center
01:46AM 38.5053 -122.2025 231° Southwest 455 524 26,500 -2,580 Descending Oakland Center
01:47AM 38.4272 -122.3242 231° Southwest 445 512 23,900 -2,580 Descending Oakland Center
01:48AM 38.3503 -122.4461 231° Southwest 444 511 21,300 -2,520 Descending Oakland Center
01:49AM 38.2564 -122.5300 215° Southwest 427 491 18,900 -2,760 Descending Oakland Center
01:50AM 38.1469 -122.5739 198° South 416 479 15,800 -2,700 Descending Oakland Center
01:51AM 38.0483 -122.6144 198° South 381 438 13,500 -2,220 Descending Oakland Center
01:52AM 37.9553 -122.6544 199° South 367 422 11,400 -1,320 Descending Oakland Center
01:53AM 37.8508 -122.6492 178° South 340 391 10,900 -180 Descending Oakland Center
01:54AM 37.7833 -122.5667 136° Southeast 322 371 11,100 60 Climbing Northern Cal TRACON
01:55AM 37.7167 -122.4833 135° Southeast 322 371 11,100 -60 Level Northern Cal TRACON
01:56AM 37.6500 -122.4167 142° Southeast 328 377 11,000 -60 Descending Northern Cal TRACON
01:57AM 37.6000 -122.3500 133° Southeast 260 299 11,000 -720 Level Northern Cal TRACON
01:58AM 37.5333 -122.3167 158° South 229 264 9,600 -1,620 Descending Northern Cal TRACON
01:59AM 37.4833 -122.2833 152° Southeast 226 260 7,800 -1,320 Descending Northern Cal TRACON
02:00AM 37.4167 -122.2500 158° South 226 260 7,000 -540 Descending Northern Cal TRACON
02:01AM 37.4064 -122.1853 101° East 217 250 6,800 -480 Descending Oakland Center
02:02AM 37.4000 -122.1167 97° East 193 222 6,100 -420 Descending Northern Cal TRACON
02:03AM 37.4333 -122.0667 50° Northeast 212 244 6,100 -480 Level Northern Cal TRACON
02:04AM 37.4833 -122.0500 15° North 201 231 5,200 -1,080 Descending Northern Cal TRACON
02:05AM 37.5333 -122.1000 322° Northwest 200 230 4,000 -1,200 Descending Northern Cal TRACON
02:06AM 37.5500 -122.1667 288° West 197 227 2,900 -960 Descending Northern Cal TRACON
02:07AM 37.5667 -122.2167 293° West 184 212 2,100 -720 Descending Northern Cal TRACON
02:08AM 37.5833 -122.2667 293° West 147 169 1,500 -660 Descending Northern Cal TRACON
02:09AM 37.6000 -122.3167 293° West 134 154 800 -720 Descending Northern Cal TRACON